Time;durP1;ratioP1;P1;durP2;ratioP2;P2;SDS_P1;SDS_P2;PMS_P1;PMS_P2;Temp;Humidity;BMP_temperature;BMP_pressure;BME280_temperature;BME280_humidity;BME280_pressure;Samples;Min_cycle;Max_cycle;Signal;HPM_P1;HPM_P2
2021/12/12 00:02:05;;;;;;;20.25;9.20;;;;;;;1.16;80.86;101527.97;4825934;29;20061;-67
2021/12/12 00:05:09;;;;;;;21.55;6.53;;;;;;;1.03;81.57;101534.81;4825719;29;20152;-67
2021/12/12 00:08:16;;;;;;;29.52;16.38;;;;;;;1.11;81.57;101538.25;4825752;29;20111;-67
2021/12/12 00:11:24;;;;;;;10.68;4.95;;;;;;;1.17;81.17;101533.13;4825829;29;20045;-66
2021/12/12 00:14:31;;;;;;;10.60;4.75;;;;;;;1.26;81.02;101531.44;4825496;29;20076;-67
2021/12/12 00:17:35;;;;;;;9.07;4.07;;;;;;;1.23;81.14;101527.13;4825192;29;20061;-67
2021/12/12 00:20:38;;;;;;;9.20;4.30;;;;;;;1.16;81.14;101534.00;4824477;29;20052;-67
2021/12/12 00:23:42;;;;;;;8.35;4.53;;;;;;;1.13;81.07;101525.41;4825112;29;20049;-67
2021/12/12 00:26:48;;;;;;;12.38;4.53;;;;;;;0.93;81.57;101515.91;4813998;29;20106;-67
2021/12/12 00:29:52;;;;;;;10.65;4.35;;;;;;;1.00;81.54;101514.22;4813928;29;20139;-67
2021/12/12 00:32:55;;;;;;;12.48;4.22;;;;;;;1.10;81.03;101518.53;4813989;29;20045;-67
2021/12/12 00:35:59;;;;;;;16.67;6.68;;;;;;;1.06;80.49;101521.94;4825239;29;20049;-67
2021/12/12 00:39:11;;;;;;;15.55;5.45;;;;;;;0.89;81.43;101521.91;4812123;29;20494;-67
2021/12/12 00:42:22;;;;;;;12.80;6.40;;;;;;;0.89;81.44;101521.03;4824959;29;20053;-67
2021/12/12 00:45:26;;;;;;;12.73;5.65;;;;;;;0.81;81.43;101527.88;4824973;29;20111;-67
2021/12/12 00:48:30;;;;;;;16.33;6.07;;;;;;;0.83;81.46;101529.59;4824964;29;20048;-67
2021/12/12 00:51:38;;;;;;;8.80;4.28;;;;;;;0.68;82.23;101538.13;4824886;29;20057;-67
2021/12/12 00:54:44;;;;;;;25.08;8.25;;;;;;;0.89;82.32;101541.63;4823511;29;20458;-67
2021/12/12 00:57:52;;;;;;;19.08;7.75;;;;;;;0.98;81.98;101533.94;4824505;29;20057;-67
2021/12/12 01:01:02;;;;;;;16.27;5.72;;;;;;;1.17;81.40;101533.13;4824638;29;20069;-67
2021/12/12 01:04:15;;;;;;;10.52;4.57;;;;;;;1.28;81.19;101540.91;4824793;29;20080;-67
2021/12/12 01:07:28;;;;;;;8.25;4.70;;;;;;;1.38;80.75;101552.09;4824670;29;20432;-67
2021/12/12 01:10:37;;;;;;;12.55;4.95;;;;;;;1.31;80.81;101540.06;4824710;29;20089;-68
2021/12/12 01:13:41;;;;;;;16.75;4.82;;;;;;;1.25;81.01;101540.03;4824555;29;20056;-68
2021/12/12 01:16:54;;;;;;;13.13;5.68;;;;;;;1.10;81.22;101546.00;4824577;29;20529;-68
2021/12/12 01:20:20;;;;;;;13.10;4.57;;;;;;;1.11;81.42;101564.03;4823271;29;20106;-68
2021/12/12 01:23:35;;;;;;;10.30;4.50;;;;;;;1.06;82.51;101570.03;4824336;29;20531;-68
2021/12/12 01:26:39;;;;;;;16.58;5.45;;;;;;;1.15;82.29;101570.94;4824301;29;20511;-68
2021/12/12 01:29:42;;;;;;;14.80;5.18;;;;;;;1.27;81.86;101558.91;4805824;29;20516;-66
2021/12/12 01:32:48;;;;;;;17.98;4.25;;;;;;;1.24;81.62;101558.91;4806012;29;20110;-66
2021/12/12 01:35:52;;;;;;;7.85;4.00;;;;;;;1.21;81.71;101559.75;4805871;29;20463;-66
2021/12/12 01:38:56;;;;;;;15.52;7.57;;;;;;;1.29;81.55;101546.91;4806034;29;20085;-66
2021/12/12 01:42:07;;;;;;;10.80;4.38;;;;;;;1.25;82.12;101545.19;4805977;29;20056;-66
2021/12/12 01:45:33;;;;;;;15.55;8.98;;;;;;;1.12;82.52;101540.00;4806187;29;20069;-66
2021/12/12 01:48:42;;;;;;;13.20;4.70;;;;;;;1.08;83.22;101534.81;4806395;29;20068;-66
2021/12/12 01:51:47;;;;;;;8.02;3.75;;;;;;;1.21;82.77;101531.41;4804766;29;20120;-66
2021/12/12 01:54:54;;;;;;;8.65;4.68;;;;;;;1.22;82.94;101542.59;4805719;29;20115;-66
2021/12/12 01:58:00;;;;;;;10.15;4.47;;;;;;;1.01;83.69;101538.25;4804951;29;20060;-66
2021/12/12 02:01:16;;;;;;;9.27;5.20;;;;;;;0.98;83.82;101533.94;4805373;29;20058;-68
2021/12/12 02:04:29;;;;;;;11.55;5.47;;;;;;;1.03;83.80;101532.25;4805376;29;20057;-68
2021/12/12 02:07:36;;;;;;;20.85;7.35;;;;;;;0.99;83.82;101534.78;4805518;29;20285;-67
2021/12/12 02:10:45;;;;;;;12.60;6.10;;;;;;;1.01;83.61;101528.78;4805421;29;20046;-68
2021/12/12 02:13:52;;;;;;;12.82;5.80;;;;;;;1.12;83.65;101534.84;4823043;29;20057;-68
2021/12/12 02:17:10;;;;;;;20.58;12.43;;;;;;;1.17;83.19;101527.97;4823976;29;20138;-68
2021/12/12 02:20:29;;;;;;;16.73;12.27;;;;;;;1.22;83.30;101519.41;4823359;29;20069;-68
2021/12/12 02:23:50;;;;;;;9.55;5.03;;;;;;;1.00;83.48;101529.66;4823535;29;20057;-68
2021/12/12 02:37:08;;;;;;;9.63;5.55;;;;;;;1.25;82.94;101527.16;4823398;29;20107;-68
2021/12/12 02:40:26;;;;;;;9.02;4.70;;;;;;;1.31;82.93;101524.59;4823246;29;20103;-68
2021/12/12 02:43:33;;;;;;;7.65;4.38;;;;;;;1.20;82.93;101528.84;4821499;29;20157;-68
2021/12/12 02:46:37;;;;;;;11.80;5.22;;;;;;;1.17;83.46;101538.28;4822485;29;20057;-68
2021/12/12 02:53:02;;;;;;;8.25;3.85;;;;;;;1.09;83.61;101534.84;4823174;29;20140;-68
2021/12/12 02:56:12;;;;;;;6.80;3.70;;;;;;;0.96;84.25;101530.50;4823015;29;20519;-68
2021/12/12 02:59:21;;;;;;;8.80;4.60;;;;;;;1.04;84.10;101526.22;4822916;29;20057;-68
2021/12/12 03:02:28;;;;;;;6.43;4.53;;;;;;;0.95;84.33;101531.34;4822981;29;20065;-68
2021/12/12 03:05:36;;;;;;;11.25;4.88;;;;;;;0.87;85.18;101533.06;4823336;29;20074;-68
2021/12/12 03:08:42;;;;;;;7.55;4.28;;;;;;;1.09;84.39;101531.41;4823077;29;20065;-68
2021/12/12 03:11:48;;;;;;;7.55;4.00;;;;;;;1.16;83.98;101534.00;4822560;29;20093;-68
2021/12/12 03:14:53;;;;;;;12.98;4.60;;;;;;;1.03;84.10;101527.09;4822335;29;20065;-68
2021/12/12 03:18:20;;;;;;;8.02;4.57;;;;;;;0.93;84.81;101531.34;4822645;29;20106;-68
2021/12/12 03:21:34;;;;;;;13.32;4.90;;;;;;;0.94;85.23;101529.63;4823026;29;20053;-68
2021/12/12 03:24:39;;;;;;;10.45;5.30;;;;;;;0.98;84.87;101521.06;4823058;29;20061;-68
2021/12/12 03:27:44;;;;;;;8.18;4.22;;;;;;;1.09;84.45;101511.66;4822497;29;20065;-68
2021/12/12 03:30:54;;;;;;;11.20;4.40;;;;;;;1.01;84.87;101515.06;4811634;29;20107;-68
2021/12/12 03:34:00;;;;;;;7.43;4.40;;;;;;;0.98;84.83;101517.63;4822632;29;20069;-68
2021/12/12 03:37:09;;;;;;;12.30;4.65;;;;;;;0.86;85.16;101528.72;4811354;29;20123;-68
2021/12/12 03:40:20;;;;;;;12.13;5.15;;;;;;;0.80;85.30;101527.03;4822623;29;20527;-68
2021/12/12 03:43:24;;;;;;;8.68;4.55;;;;;;;0.85;85.63;101529.59;4804356;29;20114;-68
2021/12/12 03:46:28;;;;;;;7.50;4.22;;;;;;;0.88;85.27;101529.59;4804286;29;20050;-68
2021/12/12 03:49:33;;;;;;;7.43;4.78;;;;;;;0.87;84.79;101533.06;4804562;29;20462;-68
2021/12/12 03:52:36;;;;;;;7.95;3.90;;;;;;;0.86;85.25;101532.19;4804617;29;20050;-68
2021/12/12 03:55:41;;;;;;;7.13;4.32;;;;;;;0.92;85.02;101536.47;4807695;29;20046;-68
2021/12/12 03:58:46;;;;;;;6.30;4.60;;;;;;;0.84;84.80;101533.88;4807725;29;20050;-68
2021/12/12 04:01:51;;;;;;;6.65;4.47;;;;;;;0.97;84.79;101536.50;4807414;29;20062;-68
2021/12/12 04:04:54;;;;;;;10.38;4.80;;;;;;;0.83;84.86;101537.34;4807848;29;20521;-68
2021/12/12 04:07:58;;;;;;;7.03;4.95;;;;;;;0.87;85.02;101539.06;4807522;29;20046;-68
2021/12/12 04:11:06;;;;;;;5.65;4.15;;;;;;;0.94;84.45;101542.50;4810806;29;20088;-68
2021/12/12 04:14:10;;;;;;;8.05;5.50;;;;;;;1.07;84.24;101543.41;4825715;29;20053;-68
2021/12/12 04:17:16;;;;;;;10.45;5.78;;;;;;;1.14;84.00;101543.41;4825264;29;20137;-68
2021/12/12 04:20:25;;;;;;;7.32;4.47;;;;;;;1.17;83.70;101548.59;4825408;29;20073;-68
2021/12/12 04:23:28;;;;;;;7.90;4.55;;;;;;;1.16;83.88;101553.75;4814086;29;20077;-68
2021/12/12 04:26:42;;;;;;;8.88;5.80;;;;;;;1.17;83.82;101548.59;4825254;29;20049;-68
2021/12/12 04:29:47;;;;;;;;;;;;;;;1.03;84.21;101554.56;4825514;29;20131;-68
2021/12/12 04:32:51;;;;;;;7.53;5.00;;;;;;;1.16;83.67;101552.03;4813954;29;19940;-68
2021/12/12 04:35:54;;;;;;;8.10;4.93;;;;;;;1.28;83.24;101561.50;4825179;29;20057;-68
2021/12/12 04:39:07;;;;;;;7.82;4.40;;;;;;;1.21;83.77;101556.31;4813757;29;20298;-68
2021/12/12 04:42:18;;;;;;;7.40;4.30;;;;;;;1.11;84.10;101555.44;4813009;29;20103;-68
2021/12/12 04:45:57;;;;;;;9.65;4.40;;;;;;;1.07;84.11;101549.41;4824969;29;20545;-68
2021/12/12 04:52:54;;;;;;;8.57;5.75;;;;;;;1.21;83.59;101562.31;4795550;29;20063;-69
2021/12/12 04:56:10;;;;;;;8.85;4.72;;;;;;;1.23;83.46;101563.19;4806893;29;20141;-67
2021/12/12 04:59:16;;;;;;;7.45;5.13;;;;;;;1.22;83.89;101569.22;4795221;29;20123;-68
2021/12/12 05:02:40;;;;;;;9.05;5.50;;;;;;;1.26;83.50;101567.50;4806607;29;20062;-68
2021/12/12 05:05:58;;;;;;;7.70;5.43;;;;;;;1.27;83.48;101561.50;4806052;29;20417;-68
2021/12/12 05:09:14;;;;;;;13.35;9.15;;;;;;;1.13;84.09;101556.31;4806644;29;20149;-68
2021/12/12 05:12:24;;;;;;;11.85;7.25;;;;;;;1.30;83.57;101564.06;4824363;29;20195;-68
2021/12/12 05:15:36;;;;;;;11.57;6.28;;;;;;;1.40;83.18;101563.25;4824655;29;20126;-68
2021/12/12 05:18:49;;;;;;;5.55;4.07;;;;;;;1.15;83.78;101560.63;4824528;29;20053;-68
2021/12/12 05:21:58;;;;;;;6.70;4.35;;;;;;;1.07;84.21;101574.31;4824434;29;20084;-68
2021/12/12 05:25:07;;;;;;;7.43;3.90;;;;;;;1.08;84.63;101560.56;4824400;29;20053;-68
2021/12/12 05:28:11;;;;;;;5.88;3.95;;;;;;;1.12;84.08;101567.47;4824060;29;20050;-68
2021/12/12 05:31:18;;;;;;;6.93;3.42;;;;;;;1.15;84.32;101560.63;4824344;29;20488;-68
2021/12/12 05:34:27;;;;;;;4.97;3.50;;;;;;;1.14;84.25;101566.59;4824529;29;20429;-68
2021/12/12 05:37:32;;;;;;;4.50;3.33;;;;;;;1.12;83.96;101563.19;4824147;29;20421;-68
2021/12/12 05:40:38;;;;;;;4.70;3.20;;;;;;;1.16;84.18;101561.47;4823658;29;20462;-68
2021/12/12 05:43:41;;;;;;;6.45;2.72;;;;;;;1.37;83.48;101560.66;4824196;29;20060;-68
2021/12/12 05:46:45;;;;;;;4.90;2.80;;;;;;;1.43;82.95;101562.38;4823219;29;20134;-67
2021/12/12 05:49:48;;;;;;;7.30;3.90;;;;;;;1.47;82.93;101566.69;4823997;29;20061;-67
2021/12/12 05:52:54;;;;;;;;;;;;;;;1.21;83.55;101570.06;4824480;29;20142;-68
2021/12/12 05:55:57;;;;;;;5.25;3.65;;;;;;;1.20;83.65;101567.50;4823887;29;19946;-68
2021/12/12 05:59:02;;;;;;;7.32;3.20;;;;;;;1.19;83.74;101565.78;4823508;29;20081;-68
2021/12/12 06:02:07;;;;;;;8.77;2.85;;;;;;;1.33;83.49;101558.94;4823955;29;20528;-68
2021/12/12 06:05:10;;;;;;;5.25;2.92;;;;;;;1.36;82.88;101559.78;4823829;29;20049;-68
2021/12/12 06:08:14;;;;;;;7.00;3.08;;;;;;;1.28;83.02;101565.81;4812319;29;20045;-68
2021/12/12 06:11:21;;;;;;;6.97;3.47;;;;;;;1.29;83.49;101567.53;4822480;29;20045;-68
2021/12/12 06:14:25;;;;;;;5.10;2.65;;;;;;;1.28;82.83;101565.81;4823725;29;20114;-68
2021/12/12 06:17:29;;;;;;;5.35;2.65;;;;;;;1.26;83.14;101567.50;4823620;29;20065;-68
2021/12/12 06:20:33;;;;;;;6.72;3.10;;;;;;;1.24;83.17;101567.50;4823574;29;20065;-68
2021/12/12 06:23:36;;;;;;;4.38;2.63;;;;;;;1.35;82.98;101557.22;4823558;29;20054;-68
2021/12/12 06:26:39;;;;;;;;;;;;;;;1.26;83.37;101565.78;4823738;29;20137;-68
2021/12/12 06:29:47;;;;;;;3.83;2.60;;;;;;;1.31;83.32;101573.56;4823790;29;19923;-68
2021/12/12 06:32:52;;;;;;;4.90;3.00;;;;;;;1.35;83.23;101572.69;4823427;29;20071;-68
2021/12/12 06:35:55;;;;;;;5.28;2.42;;;;;;;1.46;83.04;101570.97;4823266;29;20532;-68
2021/12/12 06:38:59;;;;;;;;;;;;;;;1.41;83.00;101577.88;4823684;29;20416;-68
2021/12/12 06:42:05;;;;;;;12.80;4.90;;;;;;;1.38;83.35;101573.56;4804769;29;19964;-68
2021/12/12 06:45:10;;;;;;;6.82;3.85;;;;;;;1.33;83.57;101572.69;4805280;29;20057;-68
2021/12/12 06:48:15;;;;;;;6.07;3.50;;;;;;;1.46;83.20;101576.13;4805018;29;20059;-68
2021/12/12 06:51:19;;;;;;;7.38;2.80;;;;;;;1.46;83.43;101583.88;4804819;29;20425;-68
2021/12/12 06:54:25;;;;;;;4.88;2.70;;;;;;;1.33;84.04;101584.69;4805147;29;20061;-68
2021/12/12 06:57:29;;;;;;;9.35;3.03;;;;;;;1.34;83.99;101581.25;4804833;29;20054;-68
2021/12/12 07:00:32;;;;;;;;;;;;;;;1.41;83.96;101582.16;4805013;29;20054;-68
2021/12/12 07:03:39;;;;;;;6.15;2.92;;;;;;;1.39;83.72;101579.56;4816319;29;20508;-68
2021/12/12 07:06:42;;;;;;;19.17;4.85;;;;;;;1.33;84.07;101579.53;4818406;29;20061;-66
2021/12/12 07:09:48;;;;;;;7.72;2.60;;;;;;;1.54;83.51;101581.31;4817683;29;20103;-66
2021/12/12 07:12:55;;;;;;;6.72;4.30;;;;;;;1.54;83.20;101582.19;4819176;29;20048;-68
2021/12/12 07:16:02;;;;;;;5.85;3.35;;;;;;;1.38;83.78;101586.44;4819087;29;20103;-66
2021/12/12 07:19:07;;;;;;;6.88;3.10;;;;;;;1.34;84.07;101589.88;4824429;29;20062;-68
2021/12/12 07:22:11;;;;;;;6.60;2.50;;;;;;;1.34;84.64;101596.72;4836428;29;20340;-68
2021/12/12 07:25:15;;;;;;;6.35;2.85;;;;;;;1.36;84.11;101595.88;4835947;29;20103;-69
2021/12/12 07:28:19;;;;;;;6.18;3.83;;;;;;;1.56;83.36;101598.53;4837815;29;20064;-68
2021/12/12 07:31:25;;;;;;;6.20;2.88;;;;;;;1.62;83.19;101603.66;4821304;29;20118;-69
2021/12/12 07:34:29;;;;;;;6.00;4.13;;;;;;;1.61;83.43;101601.94;4835818;29;20071;-68
2021/12/12 07:37:34;;;;;;;6.90;3.45;;;;;;;1.57;83.33;101600.22;4835854;29;20190;-68
2021/12/12 07:40:39;;;;;;;6.60;3.40;;;;;;;1.59;83.77;101602.78;4820532;29;20088;-68
2021/12/12 07:43:42;;;;;;;7.78;3.58;;;;;;;1.69;83.50;101603.66;4822052;29;20110;-67
2021/12/12 07:46:46;;;;;;;6.72;3.42;;;;;;;1.57;84.01;101605.38;4820937;29;20497;-67
2021/12/12 07:49:50;;;;;;;7.07;2.92;;;;;;;1.51;83.92;101602.78;4820118;29;20045;-67
2021/12/12 07:52:55;;;;;;;6.18;2.70;;;;;;;1.59;84.40;101597.66;4820894;29;20440;-68
2021/12/12 07:55:59;;;;;;;4.47;2.67;;;;;;;1.53;84.60;101597.63;4811521;29;20069;-67
2021/12/12 07:59:05;;;;;;;7.75;2.88;;;;;;;1.47;84.51;101603.66;4820842;29;20060;-67
2021/12/12 08:02:10;;;;;;;6.93;3.38;;;;;;;1.44;84.81;101606.22;4822172;29;20057;-67
2021/12/12 08:05:16;;;;;;;11.18;3.28;;;;;;;1.63;84.52;101605.41;4821887;29;20057;-67
2021/12/12 08:08:21;;;;;;;6.22;3.17;;;;;;;1.70;84.11;101602.84;4821145;29;20057;-67
2021/12/12 08:11:27;;;;;;;10.35;4.82;;;;;;;1.69;83.80;101603.66;4821026;29;20049;-67
2021/12/12 08:14:32;;;;;;;8.73;5.65;;;;;;;1.80;83.69;101592.53;4820263;29;20057;-67
2021/12/12 08:17:35;;;;;;;6.70;5.15;;;;;;;1.76;84.14;101588.22;4820713;29;20526;-67
2021/12/12 08:20:39;;;;;;;10.57;5.82;;;;;;;1.68;84.47;101596.81;4819375;29;20141;-67
2021/12/12 08:23:43;;;;;;;7.10;4.80;;;;;;;1.82;84.52;101590.81;4821159;29;20056;-67
2021/12/12 08:26:47;;;;;;;10.02;3.80;;;;;;;1.89;84.10;101595.97;4821141;29;20056;-67
2021/12/12 08:29:51;;;;;;;6.18;2.88;;;;;;;1.85;83.86;101593.41;4820398;29;20135;-67
2021/12/12 08:32:55;;;;;;;5.97;3.00;;;;;;;1.84;84.06;101595.97;4820544;29;20106;-67
2021/12/12 08:35:59;;;;;;;7.30;2.88;;;;;;;1.87;84.28;101585.66;4820493;29;20092;-67
2021/12/12 08:39:06;;;;;;;7.57;3.33;;;;;;;1.82;84.53;101589.97;4820775;29;20052;-67
2021/12/12 08:42:09;;;;;;;5.55;2.83;;;;;;;1.82;84.92;101592.53;4820696;29;20052;-67
2021/12/12 08:45:16;;;;;;;7.05;3.05;;;;;;;1.84;85.11;101594.25;4820730;29;20049;-67
2021/12/12 08:48:22;;;;;;;5.22;2.95;;;;;;;1.88;85.12;101600.25;4819297;29;20065;-67
2021/12/12 08:51:32;;;;;;;6.85;3.10;;;;;;;1.98;84.72;101596.84;4818121;29;20561;-67
2021/12/12 08:54:40;;;;;;;5.90;2.72;;;;;;;1.97;84.70;101594.25;4820834;29;20571;-67
2021/12/12 08:57:52;;;;;;;9.27;3.63;;;;;;;1.95;84.65;101598.56;4833615;29;20532;-67
2021/12/12 09:01:06;;;;;;;8.48;3.13;;;;;;;1.88;85.36;101595.09;4814605;29;20057;-67
2021/12/12 09:04:10;;;;;;;9.00;3.83;;;;;;;1.89;85.50;101591.69;4820204;29;20114;-67
2021/12/12 09:07:21;;;;;;;6.55;3.08;;;;;;;1.99;85.26;101590.81;4820628;29;20053;-67
2021/12/12 09:10:38;;;;;;;9.55;3.75;;;;;;;1.91;85.31;101592.53;4819816;29;20532;-67
2021/12/12 09:13:49;;;;;;;6.45;3.78;;;;;;;1.99;85.73;101592.53;4820247;29;20422;-67
2021/12/12 09:17:19;;;;;;;6.13;3.25;;;;;;;1.96;85.90;101590.81;4819423;29;20195;-68
2021/12/12 09:20:32;;;;;;;8.85;3.50;;;;;;;1.94;85.77;101592.53;4802999;29;20493;-67
2021/12/12 09:24:05;;;;;;;5.50;2.63;;;;;;;2.06;85.79;101589.09;4802880;29;20422;-67
2021/12/12 09:27:13;;;;;;;9.10;3.28;;;;;;;2.15;86.05;101596.84;4801929;29;20390;-67
2021/12/12 09:30:23;;;;;;;7.20;3.33;;;;;;;2.31;85.61;101585.63;4801931;29;20554;-67
2021/12/12 09:33:48;;;;;;;6.47;3.35;;;;;;;2.26;85.73;101583.91;4801537;29;20633;-67
2021/12/12 09:36:55;;;;;;;8.27;3.03;;;;;;;2.31;85.71;101589.94;4801714;29;20053;-70
2021/12/12 09:40:15;;;;;;;7.38;3.22;;;;;;;2.39;85.71;101579.59;4825098;29;20061;-67
2021/12/12 09:44:00;;;;;;;7.45;3.47;;;;;;;2.30;86.07;101570.16;4827117;29;20056;-67
2021/12/12 09:47:58;;;;;;;6.90;3.42;;;;;;;2.41;85.74;101575.31;4803319;29;20119;-67
2021/12/12 09:51:14;;;;;;;9.57;3.97;;;;;;;2.43;86.81;101569.28;4820322;29;20053;-67
2021/12/12 09:54:34;;;;;;;9.20;4.22;;;;;;;2.51;86.30;101566.66;4830717;29;20060;-67
2021/12/12 09:57:40;;;;;;;8.00;3.47;;;;;;;2.60;86.31;101569.22;4837105;29;20076;-67
2021/12/12 10:00:57;;;;;;;6.93;3.30;;;;;;;2.64;86.30;101568.34;4836963;29;20569;-67
2021/12/12 10:04:23;;;;;;;9.18;3.75;;;;;;;2.66;86.62;101556.31;4837314;29;20056;-65
2021/12/12 10:07:54;;;;;;;7.72;3.45;;;;;;;2.71;86.80;101561.44;4836579;29;20474;-65
2021/12/12 10:11:17;;;;;;;7.90;3.88;;;;;;;2.80;86.66;101553.66;4826330;29;20094;-66
2021/12/12 10:14:28;;;;;;;9.50;5.47;;;;;;;2.80;87.43;101564.00;4819278;29;20176;-67
2021/12/12 10:17:37;;;;;;;9.20;4.22;;;;;;;2.79;87.72;101562.28;4817810;29;20066;-67
2021/12/12 10:21:01;;;;;;;7.72;4.05;;;;;;;2.83;87.74;101561.41;4817160;29;20049;-67
2021/12/12 10:24:30;;;;;;;8.50;4.60;;;;;;;2.88;88.32;101561.41;4817764;29;20057;-67
2021/12/12 10:27:46;;;;;;;7.03;3.20;;;;;;;2.99;87.84;101552.72;4818235;29;20161;-67
2021/12/12 10:31:18;;;;;;;14.02;4.40;;;;;;;3.04;87.57;101547.56;4819161;29;20057;-67
2021/12/12 10:34:36;;;;;;;12.18;7.53;;;;;;;3.13;87.76;101539.75;4818647;29;20514;-67
2021/12/12 10:37:50;;;;;;;10.73;4.10;;;;;;;3.24;87.34;101545.72;4819071;29;20110;-67
2021/12/12 10:41:01;;;;;;;14.65;7.00;;;;;;;3.34;87.49;101551.69;4820352;29;20053;-67
2021/12/12 10:44:19;;;;;;;8.43;4.07;;;;;;;3.10;89.69;101539.78;4822216;29;20184;-67
2021/12/12 10:47:38;;;;;;;13.50;9.23;;;;;;;3.06;90.20;101543.22;4820975;29;20110;-67
2021/12/12 10:51:00;;;;;;;15.43;8.10;;;;;;;3.31;89.42;101554.28;4823313;29;20058;-67
2021/12/12 10:54:15;;;;;;;9.10;3.95;;;;;;;3.16;91.46;101556.94;4823175;29;20103;-67
2021/12/12 10:57:26;;;;;;;9.77;3.95;;;;;;;3.34;90.48;101556.84;4823002;29;20049;-67
2021/12/12 11:00:34;;;;;;;11.02;5.18;;;;;;;3.44;90.52;101563.69;4822654;29;20161;-67
2021/12/12 11:03:49;;;;;;;11.95;4.93;;;;;;;3.59;90.00;101548.94;4822088;29;20069;-67
2021/12/12 11:07:04;;;;;;;10.10;4.50;;;;;;;3.60;90.46;101553.25;4822867;29;20073;-67
2021/12/12 11:10:28;;;;;;;10.13;4.63;;;;;;;3.48;91.87;101555.06;4822894;29;20146;-67
2021/12/12 11:13:39;;;;;;;7.30;4.05;;;;;;;3.61;91.29;101544.63;4823080;29;20053;-67
2021/12/12 11:16:53;;;;;;;16.42;9.15;;;;;;;3.67;91.82;101540.28;4822610;29;20552;-67
2021/12/12 11:20:02;;;;;;;;;;;;;;;3.83;91.59;101545.28;4823155;29;20049;-67
2021/12/12 11:23:15;;;;;;;13.25;7.78;;;;;;;3.84;91.79;101541.88;4822696;29;19925;-67
2021/12/12 11:26:37;;;;;;;12.73;6.20;;;;;;;3.94;90.84;101530.56;4802744;29;20242;-67
2021/12/12 11:30:00;;;;;;;10.50;5.43;;;;;;;3.96;91.34;101532.25;4804624;29;20046;-67
2021/12/12 11:33:06;;;;;;;6.13;2.42;;;;;;;4.16;89.65;101533.81;4804487;29;20073;-67
2021/12/12 11:36:14;;;;;;;8.38;2.75;;;;;;;4.28;90.05;101530.25;4807258;29;20783;-67
2021/12/12 11:39:29;;;;;;;6.97;2.40;;;;;;;4.47;89.25;101528.28;4818537;29;20089;-68
2021/12/12 11:42:41;;;;;;;7.03;3.40;;;;;;;4.57;89.03;101524.75;4818629;29;20064;-68
2021/12/12 11:45:52;;;;;;;4.53;2.25;;;;;;;4.48;88.89;101517.94;4817552;29;20094;-67
2021/12/12 11:49:14;;;;;;;8.90;3.97;;;;;;;4.64;88.55;101521.22;4799920;29;20103;-67
2021/12/12 11:52:55;;;;;;;8.20;4.47;;;;;;;4.76;88.35;101520.22;4800372;29;20058;-67
2021/12/12 11:56:02;;;;;;;8.10;3.00;;;;;;;4.84;87.79;101521.81;4800209;29;20073;-68
2021/12/12 11:59:18;;;;;;;8.20;5.50;;;;;;;4.72;89.51;101527.13;4800310;29;20045;-68
2021/12/12 12:02:46;;;;;;;13.40;7.03;;;;;;;4.74;90.29;101530.56;4830737;29;20206;-67
2021/12/12 12:06:05;;;;;;;6.75;3.10;;;;;;;4.78;88.16;101534.00;4836742;29;20094;-67
2021/12/12 12:09:46;;;;;;;20.02;13.35;;;;;;;4.93;87.32;101533.81;4801597;29;20045;-68
2021/12/12 12:13:51;;;;;;;12.52;4.00;;;;;;;4.92;87.35;101531.25;4820498;29;20061;-68
2021/12/12 12:17:15;;;;;;;7.13;2.70;;;;;;;4.97;87.19;101522.50;4823407;29;20050;-68
2021/12/12 12:20:30;;;;;;;4.22;2.20;;;;;;;5.04;86.42;101520.69;4814397;29;20042;-68
2021/12/12 12:24:00;;;;;;;5.10;2.08;;;;;;;5.17;86.34;101519.66;4825596;29;20118;-68
2021/12/12 12:27:12;;;;;;;4.55;2.00;;;;;;;5.15;86.93;101529.19;4825356;29;20079;-68
2021/12/12 12:30:30;;;;;;;5.93;2.17;;;;;;;5.08;86.66;101522.38;4825144;29;20053;-68
2021/12/12 12:34:03;;;;;;;6.40;3.33;;;;;;;5.11;86.20;101520.59;4825262;29;20057;-68
2021/12/12 12:37:43;;;;;;;4.95;2.63;;;;;;;5.12;85.90;101509.34;4824872;29;20102;-69
2021/12/12 12:41:24;;;;;;;4.43;1.63;;;;;;;5.11;86.41;101511.97;4813574;29;20102;-68
2021/12/12 12:44:30;;;;;;;4.25;2.00;;;;;;;5.08;86.10;101499.06;4823923;29;20057;-68
2021/12/12 12:47:42;;;;;;;4.82;2.08;;;;;;;5.10;86.22;101510.25;4824588;29;20553;-68
2021/12/12 12:51:15;;;;;;;4.13;2.03;;;;;;;5.10;85.70;101512.84;4824932;29;20610;-68
2021/12/12 12:54:31;;;;;;;7.55;2.33;;;;;;;5.15;86.28;101513.63;4824828;29;20139;-68
2021/12/12 12:57:40;;;;;;;4.93;1.73;;;;;;;5.18;86.49;101517.94;4824742;29;20076;-68
2021/12/12 13:00:46;;;;;;;3.53;1.23;;;;;;;5.13;86.92;101520.56;4824555;29;20050;-68
2021/12/12 13:04:24;;;;;;;5.80;1.48;;;;;;;5.15;87.28;101526.59;4824583;29;20107;-68
2021/12/12 13:07:48;;;;;;;3.90;1.45;;;;;;;5.15;88.08;101525.75;4824598;29;20084;-68
2021/12/12 13:10:54;;;;;;;7.63;1.73;;;;;;;5.06;88.24;101513.75;4824604;29;20122;-68
2021/12/12 13:14:14;;;;;;;3.95;1.67;;;;;;;5.06;88.59;101513.75;4824381;29;20524;-68
2021/12/12 13:17:25;;;;;;;5.93;1.88;;;;;;;5.09;88.06;101505.94;4824447;29;20057;-68
2021/12/12 13:20:42;;;;;;;10.10;4.22;;;;;;;5.18;87.63;101505.81;4821114;29;20413;-68
2021/12/12 13:24:00;;;;;;;4.85;2.55;;;;;;;5.28;87.05;101503.94;4824091;29;20573;-68
2021/12/12 13:27:38;;;;;;;7.78;3.65;;;;;;;5.43;87.20;101506.31;4823468;29;20527;-68
2021/12/12 13:31:05;;;;;;;7.68;4.80;;;;;;;5.51;87.02;101503.59;4824421;29;20110;-68
2021/12/12 13:34:20;;;;;;;7.22;5.28;;;;;;;5.59;86.36;101501.75;4824077;29;20187;-68
2021/12/12 13:37:36;;;;;;;9.10;5.18;;;;;;;5.56;86.40;101506.97;4824241;29;20085;-68
2021/12/12 13:40:42;;;;;;;10.52;4.22;;;;;;;5.56;86.71;101507.84;4808739;29;20049;-68
2021/12/12 13:43:52;;;;;;;8.02;4.38;;;;;;;5.54;86.94;101516.50;4820553;29;20077;-68
2021/12/12 13:47:40;;;;;;;6.43;3.63;;;;;;;5.59;87.01;101517.31;4812989;29;20044;-68
2021/12/12 13:50:53;;;;;;;8.95;3.40;;;;;;;5.61;87.82;101512.94;4775478;29;20089;-67
2021/12/12 13:54:21;;;;;;;7.72;3.20;;;;;;;5.67;87.64;101523.22;4815202;29;20053;-68
2021/12/12 13:57:47;;;;;;;12.13;7.72;;;;;;;5.68;87.59;101514.56;4820849;29;20058;-68
2021/12/12 14:01:00;;;;;;;6.18;3.97;;;;;;;5.72;87.53;101526.59;4820294;29;20107;-68
2021/12/12 14:04:37;;;;;;;4.32;2.30;;;;;;;5.58;87.94;101516.47;4820811;29;20057;-68
2021/12/12 14:08:05;;;;;;;6.43;2.08;;;;;;;5.65;87.98;101517.22;4821741;29;20124;-67
2021/12/12 14:11:16;;;;;;;4.32;1.77;;;;;;;5.62;88.39;101519.88;4819911;29;20676;-68
2021/12/12 14:14:41;;;;;;;3.90;2.28;;;;;;;5.66;88.42;101513.72;4822532;29;20107;-68
2021/12/12 14:17:56;;;;;;;8.48;4.00;;;;;;;5.65;88.72;101514.63;4823120;29;20548;-67
2021/12/12 14:20:59;;;;;;;8.73;3.63;;;;;;;5.68;88.25;101518.88;4814843;29;20084;-67
2021/12/12 14:24:05;;;;;;;10.48;5.57;;;;;;;5.71;88.49;101517.13;4823438;29;20552;-67
2021/12/12 14:27:12;;;;;;;6.50;3.30;;;;;;;5.72;88.58;101517.97;4823521;29;20053;-68
2021/12/12 14:30:18;;;;;;;5.47;2.10;;;;;;;5.74;88.53;101519.66;4823475;29;20134;-68
2021/12/12 14:33:29;;;;;;;6.65;1.73;;;;;;;5.82;88.56;101517.78;4823504;29;20140;-68
2021/12/12 14:36:36;;;;;;;3.70;1.15;;;;;;;5.72;89.41;101521.41;4805292;29;20050;-68
2021/12/12 14:39:39;;;;;;;4.60;2.67;;;;;;;5.81;89.21;101518.69;4813971;29;20061;-68
2021/12/12 14:42:52;;;;;;;8.23;2.13;;;;;;;5.88;88.66;101523.78;4823326;29;20187;-68
2021/12/12 14:46:04;;;;;;;3.67;1.38;;;;;;;5.77;88.65;101531.72;4823607;29;20057;-68
2021/12/12 14:49:18;;;;;;;4.55;1.90;;;;;;;5.73;88.84;101528.31;4822026;29;20102;-67
2021/12/12 14:52:28;;;;;;;3.97;1.40;;;;;;;5.72;89.33;101531.81;4823241;29;20061;-67
2021/12/12 14:55:34;;;;;;;4.60;1.70;;;;;;;5.71;89.28;101535.28;4822677;29;20065;-68
2021/12/12 14:58:47;;;;;;;5.13;1.67;;;;;;;5.75;89.52;101531.75;4823095;29;20073;-68
2021/12/12 15:01:56;;;;;;;5.10;1.63;;;;;;;5.72;89.24;101529.22;4804914;29;20061;-68
2021/12/12 15:05:08;;;;;;;2.85;1.25;;;;;;;5.72;89.46;101542.19;4813726;29;20069;-68
2021/12/12 15:08:18;;;;;;;3.50;1.80;;;;;;;5.63;90.51;101542.31;4822328;29;20057;-68
2021/12/12 15:11:35;;;;;;;7.15;2.60;;;;;;;5.71;90.12;101534.41;4823120;29;20061;-68
2021/12/12 15:14:39;;;;;;;4.13;1.38;;;;;;;5.72;89.81;101541.31;4822713;29;20111;-68
2021/12/12 15:17:49;;;;;;;11.52;7.70;;;;;;;5.66;89.77;101551.81;4822862;29;20131;-68